createdAt,value
2022-08-07T00:02:40.511Z,2.28
2022-08-07T00:04:54.346Z,2.08
2022-08-07T00:07:21.080Z,2.08
2022-08-07T00:09:59.247Z,2.10
2022-08-07T00:12:34.396Z,2.35
2022-08-07T00:15:11.352Z,2.45
2022-08-07T00:17:41.008Z,2.33
2022-08-07T00:20:11.694Z,2.10
2022-08-07T00:22:56.140Z,2.35
2022-08-07T00:25:25.015Z,2.60
2022-08-07T00:27:56.534Z,1.98
2022-08-07T00:30:27.026Z,2.80
2022-08-07T00:33:00.766Z,2.47
2022-08-07T00:35:30.319Z,2.28
2022-08-07T00:37:58.297Z,2.50
2022-08-07T00:40:36.565Z,2.40
2022-08-07T00:44:01.684Z,2.28
2022-08-07T00:46:01.941Z,2.20
2022-08-07T00:48:31.818Z,2.50
2022-08-07T00:51:01.957Z,2.97
2022-08-07T00:53:39.281Z,2.28
2022-08-07T00:56:16.023Z,2.55
2022-08-07T00:58:43.820Z,3.25
2022-08-07T01:01:14.790Z,2.60
2022-08-07T01:03:56.827Z,3.30
2022-08-07T01:06:31.737Z,2.78
2022-08-07T01:09:01.114Z,2.80
2022-08-07T01:12:27.440Z,2.97
2022-08-07T01:14:21.314Z,3.10
2022-08-07T01:16:56.828Z,2.42
2022-08-07T01:19:27.591Z,3.22
2022-08-07T01:22:00.892Z,2.72
2022-08-07T01:24:32.498Z,2.75
2022-08-07T01:27:02.658Z,2.90
2022-08-07T01:29:33.916Z,3.50
2022-08-07T01:32:01.343Z,2.80
2022-08-07T01:34:33.354Z,2.60
2022-08-07T01:37:00.883Z,2.78
2022-08-07T01:39:41.030Z,3.05
2022-08-07T01:42:38.373Z,2.92
2022-08-07T01:45:17.850Z,2.50
2022-08-07T01:48:29.510Z,3.00
2022-08-07T01:50:32.808Z,2.75
2022-08-07T01:53:08.922Z,2.30
2022-08-07T01:55:42.271Z,2.40
2022-08-07T01:58:28.953Z,2.58
2022-08-07T02:01:09.872Z,2.50
2022-08-07T02:03:58.344Z,2.33
2022-08-07T02:06:31.241Z,2.70
2022-08-07T02:09:03.822Z,3.45
2022-08-07T02:12:03.682Z,2.20
2022-08-07T02:14:35.644Z,2.10
2022-08-07T02:17:06.295Z,2.38
2022-08-07T02:20:04.348Z,2.23
2022-08-07T02:22:25.797Z,2.75
2022-08-07T02:24:54.621Z,2.58
2022-08-07T02:27:24.275Z,2.03
2022-08-07T02:29:54.800Z,2.20
2022-08-07T02:34:51.810Z,2.20
2022-08-07T02:37:19.950Z,2.58
2022-08-07T02:40:11.959Z,3.00
2022-08-07T02:42:44.003Z,2.33
2022-08-07T02:45:59.055Z,2.22
2022-08-07T02:48:01.852Z,2.30
2022-08-07T02:50:32.639Z,2.70
2022-08-07T02:53:12.545Z,2.17
2022-08-07T02:56:03.371Z,2.13
2022-08-07T02:58:34.030Z,3.08
2022-08-07T03:01:03.097Z,3.42
2022-08-07T03:03:49.984Z,2.83
2022-08-07T03:06:25.833Z,2.67
2022-08-07T03:09:01.304Z,2.65
2022-08-07T03:11:32.691Z,2.95
2022-08-07T03:14:02.725Z,2.00
2022-08-07T03:16:30.940Z,2.53
2022-08-07T03:18:59.445Z,2.60
2022-08-07T03:21:28.364Z,1.93
2022-08-07T03:24:17.897Z,2.10
2022-08-07T03:26:57.881Z,2.45
2022-08-07T03:29:33.697Z,2.50
2022-08-07T03:32:05.331Z,2.42
2022-08-07T03:34:39.197Z,1.95
2022-08-07T03:37:12.254Z,2.20
2022-08-07T03:39:59.884Z,2.03
2022-08-07T03:42:28.178Z,2.28
2022-08-07T03:44:57.752Z,1.92
2022-08-07T03:47:26.083Z,2.03
2022-08-07T03:49:56.891Z,1.90
2022-08-07T03:52:29.111Z,2.00
2022-08-07T03:55:06.834Z,2.45
2022-08-07T03:58:08.756Z,2.22
2022-08-07T04:00:30.619Z,1.90
2022-08-07T04:03:03.657Z,2.10
2022-08-07T04:05:39.785Z,2.35
2022-08-07T04:08:16.004Z,2.10
2022-08-07T04:10:54.428Z,2.38
2022-08-07T04:14:09.508Z,1.80
2022-08-07T04:16:30.118Z,2.10
2022-08-07T04:19:01.676Z,1.90
2022-08-07T04:21:39.946Z,2.28
2022-08-07T04:24:33.701Z,1.90
2022-08-07T04:27:01.935Z,2.40
2022-08-07T04:29:40.365Z,2.10
2022-08-07T04:32:16.258Z,2.70
2022-08-07T04:34:44.097Z,2.50
2022-08-07T04:37:20.233Z,2.00
2022-08-07T04:39:49.975Z,2.38
2022-08-07T04:42:17.596Z,2.60
2022-08-07T04:44:54.683Z,2.20
2022-08-07T04:47:57.050Z,2.17
2022-08-07T04:50:42.361Z,2.22
2022-08-07T04:58:14.165Z,2.13
2022-08-07T05:00:09.696Z,2.00
2022-08-07T05:02:30.643Z,2.17
2022-08-07T05:05:11.853Z,2.05
2022-08-07T05:08:12.959Z,2.63
2022-08-07T05:10:45.957Z,2.00
2022-08-07T05:14:55.125Z,1.85
2022-08-07T05:16:24.471Z,1.88
2022-08-07T05:18:59.380Z,1.80
2022-08-07T05:21:59.850Z,1.90
2022-08-07T05:24:18.289Z,1.83
2022-08-07T05:26:55.552Z,1.70
2022-08-07T05:29:26.698Z,1.88
2022-08-07T05:32:07.657Z,1.35
2022-08-07T05:34:36.355Z,2.10
2022-08-07T05:37:05.840Z,1.52
2022-08-07T05:40:16.532Z,2.22
2022-08-07T05:42:34.291Z,1.85
2022-08-07T05:45:14.171Z,1.50
2022-08-07T05:48:02.578Z,2.22
2022-08-07T05:50:31.830Z,1.90
2022-08-07T05:53:00.294Z,1.42
2022-08-07T05:56:03.334Z,1.63
2022-08-07T05:58:17.420Z,1.70
2022-08-07T06:01:04.965Z,1.40
2022-08-07T06:03:56.793Z,1.87
2022-08-07T06:06:23.278Z,2.03
2022-08-07T06:08:57.068Z,2.50
2022-08-07T06:11:25.275Z,1.65
2022-08-07T06:14:13.380Z,1.90
2022-08-07T06:16:44.505Z,1.88
2022-08-07T06:19:52.318Z,2.40
2022-08-07T06:22:15.814Z,2.40
2022-08-07T06:24:56.978Z,2.47
2022-08-07T06:27:44.181Z,3.20
2022-08-07T06:30:32.128Z,3.40
2022-08-07T06:32:59.466Z,2.47
2022-08-07T06:35:38.923Z,2.65
2022-08-07T06:38:20.031Z,2.97
2022-08-07T06:40:51.295Z,3.08
2022-08-07T06:43:23.557Z,2.60
2022-08-07T06:45:50.753Z,2.63
2022-08-07T06:48:25.225Z,2.28
2022-08-07T06:50:54.771Z,2.50
2022-08-07T06:54:12.040Z,2.33
2022-08-07T06:56:14.828Z,2.40
2022-08-07T07:00:13.058Z,2.35
2022-08-07T07:01:44.049Z,1.90
2022-08-07T07:04:32.995Z,2.38
2022-08-07T07:07:02.413Z,2.28
2022-08-07T07:09:47.958Z,2.08
2022-08-07T07:12:31.130Z,1.80
2022-08-07T07:15:08.624Z,2.45
2022-08-07T07:17:55.284Z,2.05
2022-08-07T07:20:36.073Z,2.20
2022-08-07T07:24:09.725Z,2.15
2022-08-07T07:26:32.326Z,1.83
2022-08-07T07:29:56.608Z,2.08
2022-08-07T07:31:46.516Z,1.65
2022-08-07T07:34:22.234Z,1.73
2022-08-07T07:37:14.801Z,1.85
2022-08-07T07:39:54.230Z,1.88
2022-08-07T07:42:32.596Z,1.95
2022-08-07T07:45:05.794Z,1.67
2022-08-07T07:47:51.773Z,1.60
2022-08-07T07:50:34.143Z,1.30
2022-08-07T07:53:20.335Z,1.38
2022-08-07T07:56:00.456Z,1.23
2022-08-07T07:58:40.582Z,1.30
2022-08-07T08:02:02.264Z,1.52
2022-08-07T08:04:10.162Z,1.10
2022-08-07T08:06:39.863Z,1.00
2022-08-07T08:09:09.715Z,1.20
2022-08-07T08:11:47.179Z,1.15
2022-08-07T08:14:26.653Z,1.42
2022-08-07T08:16:56.235Z,1.00
2022-08-07T08:20:17.081Z,1.50
2022-08-07T08:22:32.848Z,1.33
2022-08-07T08:25:18.191Z,1.55
2022-08-07T08:27:56.701Z,1.17
2022-08-07T08:30:27.960Z,1.02
2022-08-07T08:32:58.557Z,1.20
2022-08-07T08:35:28.796Z,1.00
2022-08-07T08:38:08.925Z,1.10
2022-08-07T08:40:46.936Z,0.95
2022-08-07T08:43:42.726Z,0.80
2022-08-07T08:46:32.170Z,1.13
2022-08-07T08:50:05.193Z,1.08
2022-08-07T08:52:40.900Z,1.00
2022-08-07T08:55:58.981Z,0.95
2022-08-07T08:58:54.650Z,1.10
2022-08-07T09:01:40.105Z,0.95
2022-08-07T09:04:35.011Z,1.25
2022-08-07T09:07:15.310Z,0.73
2022-08-07T09:10:09.921Z,0.85
2022-08-07T09:12:53.050Z,0.70
2022-08-07T09:16:23.193Z,0.98
2022-08-07T09:19:44.585Z,0.88
2022-08-07T09:24:28.060Z,0.75
2022-08-07T09:25:14.598Z,0.57
2022-08-07T09:28:00.136Z,0.80
2022-08-07T09:31:08.713Z,0.70
2022-08-07T09:33:52.469Z,0.73
2022-08-07T09:36:37.349Z,0.80
2022-08-07T09:39:55.249Z,1.00
2022-08-07T09:42:33.536Z,0.80
2022-08-07T09:47:24.371Z,0.60
2022-08-07T09:48:55.879Z,0.77
2022-08-07T09:52:10.777Z,0.68
2022-08-07T09:54:58.805Z,0.70
2022-08-07T09:58:02.327Z,0.70
2022-08-07T10:00:48.173Z,0.68
2022-08-07T10:04:06.372Z,0.90
2022-08-07T10:06:36.566Z,0.60
2022-08-07T10:09:42.465Z,0.75
2022-08-07T10:12:34.946Z,0.60
2022-08-07T10:15:44.889Z,0.95
2022-08-07T10:18:33.341Z,0.60
2022-08-07T10:24:39.870Z,0.52
2022-08-07T10:27:13.150Z,0.70
2022-08-07T10:30:04.672Z,0.60
2022-08-07T10:33:14.851Z,0.63
2022-08-07T10:36:11.377Z,0.70
2022-08-07T10:38:57.526Z,0.50
2022-08-07T10:41:53.132Z,0.60
2022-08-07T10:47:26.815Z,0.70
2022-08-07T10:50:08.677Z,0.57
2022-08-07T10:52:59.366Z,1.38
2022-08-07T10:56:02.296Z,0.73
2022-08-07T10:59:03.315Z,0.85
2022-08-07T11:01:51.379Z,0.95
2022-08-07T11:04:47.437Z,0.65
2022-08-07T11:07:24.617Z,0.60
2022-08-07T11:10:11.051Z,0.80
2022-08-07T11:13:07.533Z,0.63
2022-08-07T11:15:58.957Z,0.75
2022-08-07T11:18:34.083Z,0.60
2022-08-07T11:21:27.085Z,0.63
2022-08-07T11:24:01.705Z,0.90
2022-08-07T11:26:48.004Z,0.80
2022-08-07T11:29:42.069Z,0.70
2022-08-07T11:32:26.090Z,0.52
2022-08-07T11:34:58.852Z,0.63
2022-08-07T11:37:57.823Z,0.70
2022-08-07T11:40:58.660Z,0.80
2022-08-07T11:43:29.559Z,0.90
2022-08-07T11:46:27.203Z,0.80
2022-08-07T11:50:11.223Z,0.90
2022-08-07T11:52:37.740Z,0.70
2022-08-07T11:56:09.226Z,0.88
2022-08-07T11:58:13.246Z,0.88
2022-08-07T12:01:00.140Z,0.80
2022-08-07T12:03:50.334Z,0.90
2022-08-07T12:06:38.901Z,0.67
2022-08-07T12:09:23.579Z,0.98
2022-08-07T12:12:12.605Z,0.80
2022-08-07T12:15:04.360Z,0.68
2022-08-07T12:17:59.365Z,0.70
2022-08-07T12:20:52.506Z,0.77
2022-08-07T12:24:05.758Z,0.75
2022-08-07T12:26:49.170Z,0.82
2022-08-07T12:29:55.390Z,6.30
2022-08-07T12:32:50.298Z,0.90
2022-08-07T12:35:21.402Z,0.73
2022-08-07T12:38:11.610Z,0.68
2022-08-07T12:40:47.429Z,0.77
2022-08-07T12:44:02.703Z,0.70
2022-08-07T12:46:10.989Z,0.80
2022-08-07T12:49:09.779Z,0.80
2022-08-07T12:52:24.353Z,0.88
2022-08-07T12:55:41.003Z,0.80
2022-08-07T12:58:28.257Z,1.13
2022-08-07T13:01:32.633Z,0.88
2022-08-07T13:04:09.803Z,0.90
2022-08-07T13:08:12.555Z,0.90
2022-08-07T13:10:45.684Z,0.90
2022-08-07T13:13:50.190Z,0.80
2022-08-07T13:16:50.719Z,1.00
2022-08-07T13:19:45.944Z,0.80
2022-08-07T13:25:24.126Z,0.80
2022-08-07T13:28:11.007Z,0.77
2022-08-07T13:30:52.091Z,1.10
2022-08-07T13:34:33.384Z,0.90
2022-08-07T13:37:10.776Z,0.95
2022-08-07T13:40:35.176Z,1.17
2022-08-07T13:43:05.901Z,0.73
2022-08-07T13:46:11.496Z,0.90
2022-08-07T13:52:05.098Z,0.90
2022-08-07T13:54:23.470Z,0.90
2022-08-07T13:56:59.731Z,0.88
2022-08-07T13:59:30.361Z,0.90
2022-08-07T14:02:10.803Z,0.90
2022-08-07T14:05:03.759Z,0.90
2022-08-07T14:08:01.037Z,0.80
2022-08-07T14:10:42.228Z,0.90
2022-08-07T14:13:19.131Z,0.90
2022-08-07T14:15:56.819Z,1.10
2022-08-07T14:18:44.944Z,0.95
2022-08-07T14:22:04.115Z,1.10
2022-08-07T14:24:41.840Z,0.80
2022-08-07T14:28:09.711Z,1.10
2022-08-07T14:30:10.961Z,0.90
2022-08-07T14:32:45.296Z,0.80
2022-08-07T14:35:43.147Z,0.70
2022-08-07T14:38:26.675Z,0.70
2022-08-07T14:41:01.928Z,1.08
2022-08-07T14:46:33.254Z,0.90
2022-08-07T14:52:05.125Z,0.80
2022-08-07T14:54:42.244Z,1.20
2022-08-07T14:57:19.704Z,0.80
2022-08-07T15:00:03.392Z,0.70
2022-08-07T15:02:34.559Z,0.90
2022-08-07T15:05:03.127Z,1.05
2022-08-07T15:07:47.632Z,0.80
2022-08-07T15:10:19.627Z,0.80
2022-08-07T15:12:54.889Z,0.80
2022-08-07T15:15:33.806Z,0.90
2022-08-07T15:18:14.256Z,1.05
2022-08-07T15:21:03.934Z,0.75
2022-08-07T15:25:13.904Z,0.63
2022-08-07T15:26:49.434Z,1.00
2022-08-07T15:30:08.407Z,0.90
2022-08-07T15:32:06.556Z,0.95
2022-08-07T15:34:57.131Z,0.93
2022-08-07T15:38:18.352Z,0.90
2022-08-07T15:40:34.633Z,1.10
2022-08-07T15:43:52.882Z,1.05
2022-08-07T15:49:12.530Z,0.98
2022-08-07T15:54:34.273Z,0.90
2022-08-07T15:57:02.965Z,1.08
2022-08-07T16:02:08.784Z,0.93
2022-08-07T16:04:38.254Z,1.02
2022-08-07T16:08:29.056Z,1.50
2022-08-07T16:10:09.617Z,1.02
2022-08-07T16:13:01.356Z,1.00
2022-08-07T16:16:06.385Z,1.00
2022-08-07T16:18:49.328Z,1.20
2022-08-07T16:21:56.973Z,1.05
2022-08-07T16:24:52.818Z,1.27
2022-08-07T16:27:40.826Z,1.38
2022-08-07T16:30:32.049Z,0.93
2022-08-07T16:34:01.954Z,1.10
2022-08-07T16:36:31.170Z,1.00
2022-08-07T16:39:20.949Z,0.82
2022-08-07T16:42:17.938Z,1.25
2022-08-07T16:46:47.137Z,2.40
2022-08-07T16:49:04.324Z,1.23
2022-08-07T16:51:54.138Z,1.20
2022-08-07T16:54:59.801Z,1.13
2022-08-07T16:58:01.911Z,0.80
2022-08-07T17:00:55.362Z,1.45
2022-08-07T17:03:59.487Z,1.40
2022-08-07T17:06:46.490Z,0.93
2022-08-07T17:10:06.683Z,1.30
2022-08-07T17:12:44.334Z,1.10
2022-08-07T17:15:15.686Z,0.97
2022-08-07T17:18:09.533Z,0.93
2022-08-07T17:20:40.508Z,1.23
2022-08-07T17:26:04.155Z,1.00
2022-08-07T17:28:55.351Z,1.02
2022-08-07T17:31:44.239Z,0.90
2022-08-07T17:35:30.802Z,0.90
2022-08-07T17:38:06.828Z,1.38
2022-08-07T17:40:50.683Z,0.90
2022-08-07T17:44:00.857Z,1.55
2022-08-07T17:46:36.412Z,0.93
2022-08-07T17:49:30.060Z,1.60
2022-08-07T17:52:10.537Z,1.05
2022-08-07T17:54:53.644Z,1.83
2022-08-07T17:57:56.308Z,2.95
2022-08-07T18:00:34.420Z,1.10
2022-08-07T18:03:21.362Z,1.20
2022-08-07T18:06:02.374Z,0.90
2022-08-07T18:09:00.693Z,0.82
2022-08-07T18:12:16.866Z,1.45
2022-08-07T18:14:46.371Z,0.60
2022-08-07T18:18:45.627Z,1.00
2022-08-07T18:21:11.510Z,0.80
2022-08-07T18:23:56.013Z,0.90
2022-08-07T18:26:40.554Z,0.90
2022-08-07T18:30:05.841Z,0.80
2022-08-07T18:32:19.803Z,0.80
2022-08-07T18:35:04.939Z,0.93
2022-08-07T18:38:59.650Z,1.13
2022-08-07T18:40:59.772Z,0.90
2022-08-07T18:43:57.719Z,1.00
2022-08-07T18:47:01.086Z,0.95
2022-08-07T18:50:32.510Z,0.80
2022-08-07T18:53:15.212Z,0.90
2022-08-07T18:56:07.160Z,0.98
2022-08-07T18:58:51.500Z,1.00
2022-08-07T19:02:31.629Z,0.95
2022-08-07T19:04:56.275Z,1.00
2022-08-07T19:07:35.131Z,1.10
2022-08-07T19:10:31.356Z,0.93
2022-08-07T19:13:27.425Z,0.90
2022-08-07T19:17:05.967Z,1.00
2022-08-07T19:19:46.841Z,1.00
2022-08-07T19:22:31.466Z,1.10
2022-08-07T19:25:05.499Z,0.95
2022-08-07T19:28:56.655Z,1.17
2022-08-07T19:31:04.543Z,1.13
2022-08-07T19:33:34.589Z,0.75
2022-08-07T19:36:03.192Z,0.90
2022-08-07T19:38:34.122Z,0.90
2022-08-07T19:41:02.732Z,1.02
2022-08-07T19:43:45.611Z,1.00
2022-08-07T19:46:26.360Z,1.30
2022-08-07T19:49:06.719Z,0.90
2022-08-07T19:51:52.657Z,1.00
2022-08-07T19:54:33.334Z,1.35
2022-08-07T19:58:00.890Z,1.25
2022-08-07T20:00:03.873Z,1.33
2022-08-07T20:02:51.802Z,2.17
2022-08-07T20:05:23.716Z,1.50
2022-08-07T20:07:59.706Z,0.90
2022-08-07T20:10:51.844Z,1.40
2022-08-07T20:13:27.016Z,1.08
2022-08-07T20:16:00.557Z,0.90
2022-08-07T20:18:32.586Z,1.90
2022-08-07T20:21:14.300Z,3.40
2022-08-07T20:23:48.388Z,3.95
2022-08-07T20:26:32.437Z,4.50
2022-08-07T20:29:10.462Z,3.80
2022-08-07T20:31:44.160Z,3.53
2022-08-07T20:34:25.527Z,3.53
2022-08-07T20:37:05.524Z,3.47
2022-08-07T20:40:02.123Z,4.43
2022-08-07T20:42:23.108Z,4.90
2022-08-07T20:44:52.911Z,5.32
2022-08-07T20:47:25.046Z,4.90
2022-08-07T20:50:00.247Z,4.75
2022-08-07T20:52:52.384Z,5.20
2022-08-07T20:55:23.830Z,5.40
2022-08-07T20:58:02.638Z,6.15
2022-08-07T21:00:42.598Z,4.75
2022-08-07T21:03:14.337Z,4.85
2022-08-07T21:05:55.800Z,4.50
2022-08-07T21:08:36.503Z,4.25
2022-08-07T21:11:05.122Z,3.88
2022-08-07T21:13:57.369Z,2.90
2022-08-07T21:16:56.374Z,3.13
2022-08-07T21:19:32.273Z,2.95
2022-08-07T21:22:19.038Z,2.70
2022-08-07T21:25:25.077Z,2.20
2022-08-07T21:28:01.681Z,1.80
2022-08-07T21:30:47.001Z,2.10
2022-08-07T21:33:29.338Z,2.28
2022-08-07T21:36:30.889Z,1.95
2022-08-07T21:39:45.378Z,1.70
2022-08-07T21:42:45.988Z,1.63
2022-08-07T21:46:10.742Z,1.98
2022-08-07T21:48:34.439Z,1.50
2022-08-07T21:51:32.537Z,1.52
2022-08-07T21:54:39.058Z,1.35
2022-08-07T21:57:51.866Z,1.65
2022-08-07T22:00:25.264Z,1.50
2022-08-07T22:03:16.771Z,1.25
2022-08-07T22:06:30.547Z,1.55
2022-08-07T22:12:04.825Z,1.30
2022-08-07T22:16:38.695Z,1.52
2022-08-07T22:18:00.593Z,1.50
2022-08-07T22:21:01.640Z,1.20
2022-08-07T22:23:57.358Z,1.40
2022-08-07T22:26:33.469Z,1.77
2022-08-07T22:29:14.022Z,1.40
2022-08-07T22:32:00.143Z,1.50
2022-08-07T22:34:59.686Z,1.70
2022-08-07T22:38:02.852Z,1.73
2022-08-07T22:40:45.192Z,1.63
2022-08-07T22:43:16.099Z,1.35
2022-08-07T22:46:47.065Z,1.70
2022-08-07T22:49:16.597Z,1.70
2022-08-07T22:52:37.270Z,1.50
2022-08-07T22:55:41.801Z,1.75
2022-08-07T22:58:46.559Z,1.70
2022-08-07T23:01:49.764Z,1.45
2022-08-07T23:04:57.874Z,1.50
2022-08-07T23:07:54.068Z,1.30
2022-08-07T23:10:46.542Z,1.30
2022-08-07T23:13:49.063Z,1.17
2022-08-07T23:17:02.375Z,1.60
2022-08-07T23:20:03.519Z,1.73
2022-08-07T23:23:01.186Z,1.50
2022-08-07T23:26:05.683Z,1.60
2022-08-07T23:29:43.975Z,1.50
2022-08-07T23:34:18.653Z,1.60
2022-08-07T23:36:04.468Z,1.77
2022-08-07T23:38:46.129Z,1.58
2022-08-07T23:42:04.499Z,1.48
2022-08-07T23:44:35.087Z,1.45
2022-08-07T23:47:42.441Z,1.30
2022-08-07T23:50:36.940Z,1.77
2022-08-07T23:53:21.627Z,1.60
2022-08-07T23:55:55.535Z,1.30
2022-08-07T23:58:36.565Z,1.95
